createdAt,value
2024-01-21T00:00:37.964Z,5.85
2024-01-21T00:05:51.866Z,5.82
2024-01-21T00:10:55.260Z,5.05
2024-01-21T00:15:58.977Z,3.80
2024-01-21T00:21:02.100Z,4.53
2024-01-21T00:26:05.738Z,5.75
2024-01-21T00:31:08.889Z,5.03
2024-01-21T00:36:21.213Z,5.10
2024-01-21T00:41:24.239Z,3.72
2024-01-21T00:46:27.149Z,3.85
2024-01-21T00:51:30.390Z,4.07
2024-01-21T00:56:33.797Z,6.93
2024-01-21T01:01:39.848Z,6.88
2024-01-21T01:06:43.770Z,6.82
2024-01-21T01:11:46.911Z,7.60
2024-01-21T01:16:49.946Z,7.97
2024-01-21T01:21:53.451Z,6.97
2024-01-21T01:26:56.575Z,5.97
2024-01-21T01:31:59.631Z,10.15
2024-01-21T01:37:02.642Z,9.38
2024-01-21T01:42:05.926Z,6.95
2024-01-21T01:47:10.159Z,14.48
2024-01-21T01:52:16.958Z,12.15
2024-01-21T01:57:22.037Z,10.45
2024-01-21T02:02:25.430Z,13.27
2024-01-21T02:07:28.640Z,14.48
2024-01-21T02:12:44.691Z,11.80
2024-01-21T02:17:50.374Z,13.80
2024-01-21T02:22:58.187Z,11.77
2024-01-21T02:28:01.313Z,15.43
2024-01-21T02:33:04.546Z,8.63
2024-01-21T02:38:07.677Z,9.23
2024-01-21T02:43:29.222Z,11.95
2024-01-21T02:48:32.255Z,13.65
2024-01-21T02:53:35.290Z,12.25
2024-01-21T02:58:38.719Z,16.00
2024-01-21T03:03:41.655Z,10.15
2024-01-21T03:08:44.857Z,13.85
2024-01-21T03:13:47.935Z,12.98
2024-01-21T03:18:50.960Z,14.95
2024-01-21T03:23:54.061Z,8.00
2024-01-21T03:28:58.453Z,10.32
2024-01-21T03:34:01.768Z,13.45
2024-01-21T03:39:05.154Z,12.73
2024-01-21T03:44:08.233Z,17.60
2024-01-21T03:49:11.347Z,13.55
2024-01-21T03:54:14.489Z,9.88
2024-01-21T03:59:18.505Z,10.40
2024-01-21T04:04:21.458Z,8.43
2024-01-21T04:09:25.552Z,14.00
2024-01-21T04:14:28.585Z,14.85
2024-01-21T04:19:32.034Z,9.93
2024-01-21T04:24:53.576Z,11.73
2024-01-21T04:29:56.503Z,11.02
2024-01-21T04:34:59.695Z,10.57
2024-01-21T04:40:02.680Z,9.57
2024-01-21T04:45:08.335Z,9.00
2024-01-21T04:50:13.788Z,12.77
2024-01-21T04:55:16.829Z,7.53
2024-01-21T05:00:21.878Z,10.55
2024-01-21T05:05:25.117Z,10.80
2024-01-21T05:10:28.204Z,13.57
2024-01-21T05:15:31.179Z,9.27
2024-01-21T05:20:34.288Z,9.43
2024-01-21T05:25:37.390Z,9.18
2024-01-21T05:30:40.437Z,6.30
2024-01-21T05:35:43.560Z,11.88
2024-01-21T05:40:46.755Z,8.45
2024-01-21T05:45:49.913Z,7.30
2024-01-21T05:50:53.002Z,11.68
2024-01-21T05:55:56.092Z,9.93
2024-01-21T06:01:00.317Z,10.35
2024-01-21T06:06:03.465Z,6.13
2024-01-21T06:11:06.716Z,8.70
2024-01-21T06:16:09.834Z,9.75
2024-01-21T06:21:12.937Z,7.15
2024-01-21T06:26:21.311Z,19.00
2024-01-21T06:31:24.326Z,8.75
2024-01-21T06:36:27.301Z,9.77
2024-01-21T06:41:30.444Z,11.50
2024-01-21T06:46:33.623Z,10.23
2024-01-21T06:51:44.827Z,9.05
2024-01-21T06:56:48.099Z,6.57
2024-01-21T07:01:52.315Z,12.07
2024-01-21T07:06:55.561Z,11.38
2024-01-21T07:11:58.672Z,8.93
2024-01-21T07:17:05.582Z,12.63
2024-01-21T07:22:08.763Z,7.32
2024-01-21T07:27:11.668Z,9.50
2024-01-21T07:32:14.810Z,11.85
2024-01-21T07:37:17.897Z,9.90
2024-01-21T07:42:20.787Z,7.50
2024-01-21T07:47:23.783Z,13.50
2024-01-21T07:52:26.816Z,8.65
2024-01-21T07:57:29.957Z,11.63
2024-01-21T08:02:33.409Z,11.02
2024-01-21T08:07:36.528Z,7.97
2024-01-21T08:12:39.898Z,9.13
2024-01-21T08:17:42.960Z,5.50
2024-01-21T08:22:46.093Z,11.10
2024-01-21T08:27:49.261Z,8.07
2024-01-21T08:32:52.176Z,11.27
2024-01-21T08:37:55.308Z,9.20
2024-01-21T08:42:58.744Z,7.78
2024-01-21T08:48:01.830Z,10.55
2024-01-21T08:53:05.306Z,7.40
2024-01-21T08:58:08.454Z,8.45
2024-01-21T09:03:13.659Z,7.57
2024-01-21T09:08:16.860Z,6.43
2024-01-21T09:13:20.843Z,8.85
2024-01-21T09:18:24.118Z,6.63
2024-01-21T09:23:27.654Z,7.75
2024-01-21T09:28:30.706Z,7.70
2024-01-21T09:33:33.933Z,5.28
2024-01-21T09:38:37.007Z,5.93
2024-01-21T09:43:45.782Z,8.18
2024-01-21T09:48:52.516Z,4.88
2024-01-21T09:53:55.711Z,8.90
2024-01-21T09:59:00.444Z,8.20
2024-01-21T10:04:04.687Z,9.57
2024-01-21T10:09:19.576Z,8.40
2024-01-21T10:14:22.749Z,8.98
2024-01-21T10:19:35.895Z,8.98
2024-01-21T10:24:40.782Z,9.63
2024-01-21T10:29:45.764Z,5.90
2024-01-21T10:34:53.587Z,9.45
2024-01-21T10:39:57.714Z,9.45
2024-01-21T10:45:03.136Z,8.60
2024-01-21T10:50:09.671Z,5.75
2024-01-21T10:55:12.847Z,7.20
2024-01-21T11:00:19.230Z,12.10
2024-01-21T11:05:25.872Z,7.63
2024-01-21T11:10:30.193Z,7.85
2024-01-21T11:15:33.464Z,7.60
2024-01-21T11:20:36.585Z,6.10
2024-01-21T11:25:39.721Z,6.95
2024-01-21T11:30:42.794Z,6.78
2024-01-21T11:35:45.759Z,5.68
2024-01-21T11:41:06.658Z,5.78
2024-01-21T11:46:10.847Z,6.20
2024-01-21T11:51:13.965Z,4.72
2024-01-21T11:56:17.175Z,4.70
2024-01-21T12:01:21.970Z,5.93
2024-01-21T12:06:26.211Z,4.93
2024-01-21T12:11:39.200Z,5.82
2024-01-21T12:16:45.721Z,6.43
2024-01-21T12:21:49.585Z,4.38
2024-01-21T12:26:56.566Z,8.98
2024-01-21T12:32:18.515Z,4.80
2024-01-21T12:37:21.826Z,9.27
2024-01-21T12:42:24.878Z,5.57
2024-01-21T12:47:27.855Z,7.20
2024-01-21T12:52:30.976Z,5.35
2024-01-21T12:57:34.548Z,6.22
2024-01-21T13:02:40.073Z,4.28
2024-01-21T13:07:43.808Z,6.95
2024-01-21T13:12:47.142Z,5.05
2024-01-21T13:17:52.409Z,4.70
2024-01-21T13:22:55.510Z,4.93
2024-01-21T13:28:16.848Z,4.47
2024-01-21T13:33:29.835Z,6.50
2024-01-21T13:38:35.309Z,8.43
2024-01-21T13:43:38.534Z,5.43
2024-01-21T13:48:41.817Z,6.90
2024-01-21T13:53:48.085Z,6.72
2024-01-21T13:58:51.022Z,7.40
2024-01-21T14:03:54.151Z,6.00
2024-01-21T14:08:57.475Z,4.95
2024-01-21T14:14:00.779Z,4.80
2024-01-21T14:19:04.473Z,9.43
2024-01-21T14:24:07.556Z,5.45
2024-01-21T14:29:36.057Z,3.13
2024-01-21T14:34:39.098Z,7.00
2024-01-21T14:39:42.211Z,3.65
2024-01-21T14:44:45.263Z,4.90
2024-01-21T14:49:48.435Z,3.65
2024-01-21T14:54:51.509Z,6.32
2024-01-21T14:59:54.780Z,6.13
2024-01-21T15:04:57.974Z,4.68
2024-01-21T15:10:01.583Z,6.65
2024-01-21T15:15:29.729Z,4.90
2024-01-21T15:20:33.106Z,6.80
2024-01-21T15:25:36.263Z,6.57
2024-01-21T15:30:44.442Z,5.15
2024-01-21T15:35:47.622Z,8.63
2024-01-21T15:40:50.781Z,4.70
2024-01-21T15:45:53.989Z,5.80
2024-01-21T15:50:58.799Z,6.78
2024-01-21T15:56:01.818Z,5.28
2024-01-21T16:01:05.184Z,6.55
2024-01-21T16:06:08.296Z,5.50
2024-01-21T16:11:32.357Z,5.03
2024-01-21T16:16:35.515Z,3.97
2024-01-21T16:21:38.726Z,6.93
2024-01-21T16:26:42.449Z,6.25
2024-01-21T16:31:46.090Z,4.70
2024-01-21T16:36:49.196Z,6.18
2024-01-21T16:41:52.248Z,5.40
2024-01-21T16:46:55.365Z,5.00
2024-01-21T16:52:08.338Z,2.92
2024-01-21T16:57:11.611Z,6.47
2024-01-21T17:02:19.400Z,5.35
2024-01-21T17:07:22.738Z,3.85
2024-01-21T17:12:34.318Z,4.72
2024-01-21T17:17:41.870Z,5.05
2024-01-21T17:22:45.057Z,4.00
2024-01-21T17:27:48.170Z,5.65
2024-01-21T17:32:51.280Z,6.57
2024-01-21T17:37:54.350Z,4.25
2024-01-21T17:42:57.181Z,4.57
2024-01-21T17:48:00.351Z,3.95
2024-01-21T17:53:03.652Z,5.97
2024-01-21T17:58:06.671Z,6.30
2024-01-21T18:03:09.975Z,5.57
2024-01-21T18:08:13.393Z,7.05
2024-01-21T18:13:16.952Z,4.03
2024-01-21T18:18:24.994Z,2.40
2024-01-21T18:23:30.001Z,6.30
2024-01-21T18:28:33.023Z,4.30
2024-01-21T18:33:38.250Z,6.90
2024-01-21T18:38:42.101Z,4.80
2024-01-21T18:43:45.013Z,8.38
2024-01-21T18:48:48.356Z,2.47
2024-01-21T18:53:51.479Z,4.07
2024-01-21T18:58:55.785Z,7.53
2024-01-21T19:03:59.075Z,3.90
2024-01-21T19:09:02.370Z,5.90
2024-01-21T19:14:05.759Z,4.60
2024-01-21T19:19:13.472Z,2.75
2024-01-21T19:24:16.908Z,8.02
2024-01-21T19:29:20.006Z,2.90
2024-01-21T19:34:23.377Z,3.17
2024-01-21T19:39:26.380Z,3.17
2024-01-21T19:44:30.595Z,3.97
2024-01-21T19:49:33.787Z,3.53
2024-01-21T19:54:37.679Z,3.45
2024-01-21T19:59:41.368Z,3.08
2024-01-21T20:04:44.504Z,4.90
2024-01-21T20:09:47.419Z,3.50
2024-01-21T20:14:50.758Z,5.57
2024-01-21T20:19:53.814Z,4.47
2024-01-21T20:24:57.146Z,4.30
2024-01-21T20:30:06.053Z,5.15
2024-01-21T20:35:10.498Z,3.17
2024-01-21T20:40:13.632Z,3.15
2024-01-21T20:45:16.828Z,3.20
2024-01-21T20:50:19.965Z,3.05
2024-01-21T20:55:34.125Z,1.92
2024-01-21T21:00:37.222Z,2.78
2024-01-21T21:05:40.498Z,7.78
2024-01-21T21:10:43.487Z,2.28
2024-01-21T21:15:46.644Z,3.72
2024-01-21T21:20:49.754Z,2.47
2024-01-21T21:25:52.910Z,5.93
2024-01-21T21:30:55.944Z,4.72
2024-01-21T21:35:59.604Z,2.63
2024-01-21T21:41:21.159Z,9.73
2024-01-21T21:46:24.332Z,4.38
2024-01-21T21:51:27.942Z,1.63
2024-01-21T21:56:31.083Z,3.92
2024-01-21T22:01:34.079Z,2.88
2024-01-21T22:06:37.680Z,5.28
2024-01-21T22:11:40.917Z,5.30
2024-01-21T22:16:44.010Z,4.75
2024-01-21T22:21:48.424Z,4.47
2024-01-21T22:26:52.601Z,3.03
2024-01-21T22:31:56.209Z,8.35
2024-01-21T22:36:59.145Z,3.35
2024-01-21T22:42:02.275Z,5.13
2024-01-21T22:47:06.027Z,1.95
2024-01-21T22:52:09.191Z,2.30
2024-01-21T22:57:12.193Z,3.13
2024-01-21T23:02:15.505Z,2.70
2024-01-21T23:07:18.944Z,4.03
2024-01-21T23:12:21.857Z,6.03
2024-01-21T23:17:25.177Z,4.05
2024-01-21T23:22:28.319Z,6.70
2024-01-21T23:27:31.710Z,5.03
2024-01-21T23:32:34.807Z,3.42
2024-01-21T23:37:38.043Z,5.18
2024-01-21T23:42:41.053Z,7.20
2024-01-21T23:47:44.188Z,5.18
2024-01-21T23:52:47.143Z,7.22
2024-01-21T23:57:50.298Z,2.20
